sensor_id;sensor_type;location;lat;lon;timestamp;temperature;humidity
19968;DHT22;10145;49.152;9.282;2024-01-30T00:01:40;-1.00;99.90
19968;DHT22;10145;49.152;9.282;2024-01-30T00:04:05;-1.00;99.90
19968;DHT22;10145;49.152;9.282;2024-01-30T00:06:31;-1.00;99.90
19968;DHT22;10145;49.152;9.282;2024-01-30T00:08:57;-1.00;99.90
19968;DHT22;10145;49.152;9.282;2024-01-30T00:11:23;-1.00;99.90
19968;DHT22;10145;49.152;9.282;2024-01-30T00:13:53;-1.00;99.90
19968;DHT22;10145;49.152;9.282;2024-01-30T00:16:21;-1.00;99.90
19968;DHT22;10145;49.152;9.282;2024-01-30T00:18:47;-1.00;99.90
19968;DHT22;10145;49.152;9.282;2024-01-30T00:21:13;-1.00;99.90
19968;DHT22;10145;49.152;9.282;2024-01-30T00:23:38;-1.00;99.90
19968;DHT22;10145;49.152;9.282;2024-01-30T00:26:04;-1.00;99.90
19968;DHT22;10145;49.152;9.282;2024-01-30T00:28:30;-1.00;99.90
19968;DHT22;10145;49.152;9.282;2024-01-30T00:30:56;-1.00;99.90
19968;DHT22;10145;49.152;9.282;2024-01-30T00:33:22;-1.00;99.90
19968;DHT22;10145;49.152;9.282;2024-01-30T00:35:47;-1.00;99.90
19968;DHT22;10145;49.152;9.282;2024-01-30T00:38:13;-0.90;99.90
19968;DHT22;10145;49.152;9.282;2024-01-30T00:40:38;-1.00;99.90
19968;DHT22;10145;49.152;9.282;2024-01-30T00:43:04;-0.90;99.90
19968;DHT22;10145;49.152;9.282;2024-01-30T00:45:29;-0.90;99.90
19968;DHT22;10145;49.152;9.282;2024-01-30T00:47:55;-0.90;99.90
19968;DHT22;10145;49.152;9.282;2024-01-30T00:50:21;-0.90;99.90
19968;DHT22;10145;49.152;9.282;2024-01-30T00:52:46;-1.00;99.90
19968;DHT22;10145;49.152;9.282;2024-01-30T00:55:12;-1.00;99.90
19968;DHT22;10145;49.152;9.282;2024-01-30T00:57:38;-1.00;99.90
19968;DHT22;10145;49.152;9.282;2024-01-30T01:00:04;-1.00;99.90
19968;DHT22;10145;49.152;9.282;2024-01-30T01:02:31;-1.00;99.90
19968;DHT22;10145;49.152;9.282;2024-01-30T01:04:57;-1.00;99.90
19968;DHT22;10145;49.152;9.282;2024-01-30T01:07:23;-1.00;99.90
19968;DHT22;10145;49.152;9.282;2024-01-30T01:09:48;-1.00;99.90
19968;DHT22;10145;49.152;9.282;2024-01-30T01:12:14;-1.00;99.90
19968;DHT22;10145;49.152;9.282;2024-01-30T01:14:39;-1.00;99.90
19968;DHT22;10145;49.152;9.282;2024-01-30T01:17:05;-1.00;99.90
19968;DHT22;10145;49.152;9.282;2024-01-30T01:19:30;-1.00;99.90
19968;DHT22;10145;49.152;9.282;2024-01-30T01:21:56;-1.10;99.90
19968;DHT22;10145;49.152;9.282;2024-01-30T01:24:22;-1.10;99.90
19968;DHT22;10145;49.152;9.282;2024-01-30T01:26:47;-1.10;99.90
19968;DHT22;10145;49.152;9.282;2024-01-30T01:29:13;-1.10;99.90
19968;DHT22;10145;49.152;9.282;2024-01-30T01:31:39;-1.10;99.90
19968;DHT22;10145;49.152;9.282;2024-01-30T01:34:12;-1.10;99.90
19968;DHT22;10145;49.152;9.282;2024-01-30T01:36:38;-1.20;99.90
19968;DHT22;10145;49.152;9.282;2024-01-30T01:39:03;-1.10;99.90
19968;DHT22;10145;49.152;9.282;2024-01-30T01:41:30;-1.20;99.90
19968;DHT22;10145;49.152;9.282;2024-01-30T01:43:57;-1.20;99.90
19968;DHT22;10145;49.152;9.282;2024-01-30T01:46:23;-1.20;99.90
19968;DHT22;10145;49.152;9.282;2024-01-30T01:48:49;-1.20;99.90
19968;DHT22;10145;49.152;9.282;2024-01-30T01:51:15;-1.20;99.90
19968;DHT22;10145;49.152;9.282;2024-01-30T01:53:41;-1.30;99.90
19968;DHT22;10145;49.152;9.282;2024-01-30T01:56:07;-1.20;99.90
19968;DHT22;10145;49.152;9.282;2024-01-30T01:58:32;-1.20;99.90
19968;DHT22;10145;49.152;9.282;2024-01-30T02:00:58;-1.30;99.90
19968;DHT22;10145;49.152;9.282;2024-01-30T02:03:24;-1.30;99.90
19968;DHT22;10145;49.152;9.282;2024-01-30T02:05:53;-1.30;99.90
19968;DHT22;10145;49.152;9.282;2024-01-30T02:08:20;-1.30;99.90
19968;DHT22;10145;49.152;9.282;2024-01-30T02:10:46;-1.30;99.90
19968;DHT22;10145;49.152;9.282;2024-01-30T02:13:11;-1.30;99.90
19968;DHT22;10145;49.152;9.282;2024-01-30T02:15:37;-1.30;99.90
19968;DHT22;10145;49.152;9.282;2024-01-30T02:18:03;-1.30;99.90
19968;DHT22;10145;49.152;9.282;2024-01-30T02:20:30;-1.30;99.90
19968;DHT22;10145;49.152;9.282;2024-01-30T02:22:56;-1.30;99.90
19968;DHT22;10145;49.152;9.282;2024-01-30T02:25:36;-1.40;99.90
19968;DHT22;10145;49.152;9.282;2024-01-30T02:28:02;-1.40;99.90
19968;DHT22;10145;49.152;9.282;2024-01-30T02:30:27;-1.40;99.90
19968;DHT22;10145;49.152;9.282;2024-01-30T02:32:53;-1.40;99.90
19968;DHT22;10145;49.152;9.282;2024-01-30T02:35:18;-1.40;99.90
19968;DHT22;10145;49.152;9.282;2024-01-30T02:37:44;-1.40;99.90
19968;DHT22;10145;49.152;9.282;2024-01-30T02:40:09;-1.40;99.90
19968;DHT22;10145;49.152;9.282;2024-01-30T02:42:35;-1.40;99.90
19968;DHT22;10145;49.152;9.282;2024-01-30T02:45:00;-1.50;99.90
19968;DHT22;10145;49.152;9.282;2024-01-30T02:47:26;-1.50;99.90
19968;DHT22;10145;49.152;9.282;2024-01-30T02:49:52;-1.50;99.90
19968;DHT22;10145;49.152;9.282;2024-01-30T02:52:17;-1.50;99.90
19968;DHT22;10145;49.152;9.282;2024-01-30T02:54:43;-1.50;99.90
19968;DHT22;10145;49.152;9.282;2024-01-30T02:57:08;-1.50;99.90
19968;DHT22;10145;49.152;9.282;2024-01-30T02:59:34;-1.50;99.90
19968;DHT22;10145;49.152;9.282;2024-01-30T03:02:01;-1.50;99.90
19968;DHT22;10145;49.152;9.282;2024-01-30T03:04:26;-1.50;99.90
19968;DHT22;10145;49.152;9.282;2024-01-30T03:06:52;-1.50;99.90
19968;DHT22;10145;49.152;9.282;2024-01-30T03:09:18;-1.50;99.90
19968;DHT22;10145;49.152;9.282;2024-01-30T03:11:44;-1.50;99.90
19968;DHT22;10145;49.152;9.282;2024-01-30T03:14:09;-1.50;99.90
19968;DHT22;10145;49.152;9.282;2024-01-30T03:16:37;-1.50;99.90
19968;DHT22;10145;49.152;9.282;2024-01-30T03:19:03;-1.50;99.90
19968;DHT22;10145;49.152;9.282;2024-01-30T03:21:29;-1.60;99.90
19968;DHT22;10145;49.152;9.282;2024-01-30T03:23:54;-1.60;99.90
19968;DHT22;10145;49.152;9.282;2024-01-30T03:26:20;-1.60;99.90
19968;DHT22;10145;49.152;9.282;2024-01-30T03:28:45;-1.60;99.90
19968;DHT22;10145;49.152;9.282;2024-01-30T03:31:14;-1.60;99.90
19968;DHT22;10145;49.152;9.282;2024-01-30T03:33:39;-1.60;99.90
19968;DHT22;10145;49.152;9.282;2024-01-30T03:36:05;-1.60;99.90
19968;DHT22;10145;49.152;9.282;2024-01-30T03:38:31;-1.60;99.90
19968;DHT22;10145;49.152;9.282;2024-01-30T03:40:59;-1.60;99.90
19968;DHT22;10145;49.152;9.282;2024-01-30T03:43:25;-1.50;99.90
19968;DHT22;10145;49.152;9.282;2024-01-30T03:45:51;-1.50;99.90
19968;DHT22;10145;49.152;9.282;2024-01-30T03:48:17;-1.60;99.90
19968;DHT22;10145;49.152;9.282;2024-01-30T03:50:42;-1.50;99.90
19968;DHT22;10145;49.152;9.282;2024-01-30T03:53:08;-1.60;99.90
19968;DHT22;10145;49.152;9.282;2024-01-30T03:55:33;-1.60;99.90
19968;DHT22;10145;49.152;9.282;2024-01-30T03:57:59;-1.60;99.90
19968;DHT22;10145;49.152;9.282;2024-01-30T04:00:24;-1.60;99.90
19968;DHT22;10145;49.152;9.282;2024-01-30T04:02:50;-1.60;99.90
19968;DHT22;10145;49.152;9.282;2024-01-30T04:05:16;-1.60;99.90
19968;DHT22;10145;49.152;9.282;2024-01-30T04:07:42;-1.50;99.90
19968;DHT22;10145;49.152;9.282;2024-01-30T04:10:09;-1.50;99.90
19968;DHT22;10145;49.152;9.282;2024-01-30T04:12:35;-1.50;99.90
19968;DHT22;10145;49.152;9.282;2024-01-30T04:15:01;-1.50;99.90
19968;DHT22;10145;49.152;9.282;2024-01-30T04:17:26;-1.50;99.90
19968;DHT22;10145;49.152;9.282;2024-01-30T04:19:53;-1.50;99.90
19968;DHT22;10145;49.152;9.282;2024-01-30T04:22:19;-1.50;99.90
19968;DHT22;10145;49.152;9.282;2024-01-30T04:24:44;-1.60;99.90
19968;DHT22;10145;49.152;9.282;2024-01-30T04:27:10;-1.60;99.90
19968;DHT22;10145;49.152;9.282;2024-01-30T04:29:35;-1.60;99.90
19968;DHT22;10145;49.152;9.282;2024-01-30T04:32:01;-1.60;99.90
19968;DHT22;10145;49.152;9.282;2024-01-30T04:34:26;-1.60;99.90
19968;DHT22;10145;49.152;9.282;2024-01-30T04:36:52;-1.60;99.90
19968;DHT22;10145;49.152;9.282;2024-01-30T04:39:17;-1.60;99.90
19968;DHT22;10145;49.152;9.282;2024-01-30T04:41:43;-1.60;99.90
19968;DHT22;10145;49.152;9.282;2024-01-30T04:44:08;-1.60;99.90
19968;DHT22;10145;49.152;9.282;2024-01-30T04:46:34;-1.60;99.90
19968;DHT22;10145;49.152;9.282;2024-01-30T04:49:00;-1.60;99.90
19968;DHT22;10145;49.152;9.282;2024-01-30T04:51:25;-1.60;99.90
19968;DHT22;10145;49.152;9.282;2024-01-30T04:53:51;-1.70;99.90
19968;DHT22;10145;49.152;9.282;2024-01-30T04:56:16;-1.70;99.90
19968;DHT22;10145;49.152;9.282;2024-01-30T04:58:42;-1.70;99.90
19968;DHT22;10145;49.152;9.282;2024-01-30T05:01:08;-1.70;99.90
19968;DHT22;10145;49.152;9.282;2024-01-30T05:03:34;-1.70;99.90
19968;DHT22;10145;49.152;9.282;2024-01-30T05:06:00;-1.70;99.90
19968;DHT22;10145;49.152;9.282;2024-01-30T05:08:25;-1.80;99.90
19968;DHT22;10145;49.152;9.282;2024-01-30T05:10:51;-1.70;99.90
19968;DHT22;10145;49.152;9.282;2024-01-30T05:13:16;-1.70;99.90
19968;DHT22;10145;49.152;9.282;2024-01-30T05:15:42;-1.70;99.90
19968;DHT22;10145;49.152;9.282;2024-01-30T05:18:07;-1.70;99.90
19968;DHT22;10145;49.152;9.282;2024-01-30T05:20:33;-1.70;99.90
19968;DHT22;10145;49.152;9.282;2024-01-30T05:22:58;-1.70;99.90
19968;DHT22;10145;49.152;9.282;2024-01-30T05:25:24;-1.70;99.90
19968;DHT22;10145;49.152;9.282;2024-01-30T05:27:50;-1.70;99.90
19968;DHT22;10145;49.152;9.282;2024-01-30T05:30:15;-1.70;99.90
19968;DHT22;10145;49.152;9.282;2024-01-30T05:32:41;-1.70;99.90
19968;DHT22;10145;49.152;9.282;2024-01-30T05:35:07;-1.70;99.90
19968;DHT22;10145;49.152;9.282;2024-01-30T05:37:35;-1.70;99.90
19968;DHT22;10145;49.152;9.282;2024-01-30T05:40:00;-1.70;99.90
19968;DHT22;10145;49.152;9.282;2024-01-30T05:42:27;-1.70;99.90
19968;DHT22;10145;49.152;9.282;2024-01-30T05:44:52;-1.70;99.90
19968;DHT22;10145;49.152;9.282;2024-01-30T05:47:18;-1.60;99.90
19968;DHT22;10145;49.152;9.282;2024-01-30T05:49:43;-1.60;99.90
19968;DHT22;10145;49.152;9.282;2024-01-30T05:52:09;-1.60;99.90
19968;DHT22;10145;49.152;9.282;2024-01-30T05:54:35;-1.50;99.90
19968;DHT22;10145;49.152;9.282;2024-01-30T05:57:00;-1.60;99.90
19968;DHT22;10145;49.152;9.282;2024-01-30T05:59:26;-1.40;99.90
19968;DHT22;10145;49.152;9.282;2024-01-30T06:01:51;-1.60;99.90
19968;DHT22;10145;49.152;9.282;2024-01-30T06:04:17;-1.60;99.90
19968;DHT22;10145;49.152;9.282;2024-01-30T06:06:42;-1.60;99.90
19968;DHT22;10145;49.152;9.282;2024-01-30T06:09:08;-1.70;99.90
19968;DHT22;10145;49.152;9.282;2024-01-30T06:11:38;-1.70;99.90
19968;DHT22;10145;49.152;9.282;2024-01-30T06:14:03;-1.70;99.90
19968;DHT22;10145;49.152;9.282;2024-01-30T06:16:29;-1.70;99.90
19968;DHT22;10145;49.152;9.282;2024-01-30T06:18:55;-1.70;99.90
19968;DHT22;10145;49.152;9.282;2024-01-30T06:21:21;-1.80;99.90
19968;DHT22;10145;49.152;9.282;2024-01-30T06:23:46;-1.70;99.90
19968;DHT22;10145;49.152;9.282;2024-01-30T06:26:12;-1.70;99.90
19968;DHT22;10145;49.152;9.282;2024-01-30T06:28:37;-1.70;99.90
19968;DHT22;10145;49.152;9.282;2024-01-30T06:31:03;-1.70;99.90
19968;DHT22;10145;49.152;9.282;2024-01-30T06:33:29;-1.70;99.90
19968;DHT22;10145;49.152;9.282;2024-01-30T06:35:54;-1.70;99.90
19968;DHT22;10145;49.152;9.282;2024-01-30T06:38:20;-1.70;99.90
19968;DHT22;10145;49.152;9.282;2024-01-30T06:40:45;-1.70;99.90
19968;DHT22;10145;49.152;9.282;2024-01-30T06:43:11;-1.70;99.90
19968;DHT22;10145;49.152;9.282;2024-01-30T06:45:37;-1.70;99.90
19968;DHT22;10145;49.152;9.282;2024-01-30T06:48:03;-1.70;99.90
19968;DHT22;10145;49.152;9.282;2024-01-30T06:50:28;-1.70;99.90
19968;DHT22;10145;49.152;9.282;2024-01-30T06:52:54;-1.60;99.90
19968;DHT22;10145;49.152;9.282;2024-01-30T06:55:19;-1.60;99.90
19968;DHT22;10145;49.152;9.282;2024-01-30T06:57:45;-1.60;99.90
19968;DHT22;10145;49.152;9.282;2024-01-30T07:00:11;-1.60;99.90
19968;DHT22;10145;49.152;9.282;2024-01-30T07:02:37;-1.60;99.90
19968;DHT22;10145;49.152;9.282;2024-01-30T07:05:03;-1.50;99.90
19968;DHT22;10145;49.152;9.282;2024-01-30T07:07:28;-1.60;99.90
19968;DHT22;10145;49.152;9.282;2024-01-30T07:09:54;-1.60;99.90
19968;DHT22;10145;49.152;9.282;2024-01-30T07:12:22;-1.60;99.90
19968;DHT22;10145;49.152;9.282;2024-01-30T07:14:49;-1.50;99.90
19968;DHT22;10145;49.152;9.282;2024-01-30T07:17:15;-1.50;99.90
19968;DHT22;10145;49.152;9.282;2024-01-30T07:19:41;-1.50;99.90
19968;DHT22;10145;49.152;9.282;2024-01-30T07:22:07;-1.40;99.90
19968;DHT22;10145;49.152;9.282;2024-01-30T07:24:33;-1.40;99.90
19968;DHT22;10145;49.152;9.282;2024-01-30T07:26:58;-1.40;99.90
19968;DHT22;10145;49.152;9.282;2024-01-30T07:29:24;-1.30;99.90
19968;DHT22;10145;49.152;9.282;2024-01-30T07:31:50;-1.20;99.90
19968;DHT22;10145;49.152;9.282;2024-01-30T07:34:15;-1.10;99.90
19968;DHT22;10145;49.152;9.282;2024-01-30T07:36:41;-1.10;99.90
19968;DHT22;10145;49.152;9.282;2024-01-30T07:39:06;-1.10;99.90
19968;DHT22;10145;49.152;9.282;2024-01-30T07:41:32;-1.00;99.90
19968;DHT22;10145;49.152;9.282;2024-01-30T07:43:58;-1.00;99.90
19968;DHT22;10145;49.152;9.282;2024-01-30T07:46:23;-1.00;99.90
19968;DHT22;10145;49.152;9.282;2024-01-30T07:48:49;-0.90;99.90
19968;DHT22;10145;49.152;9.282;2024-01-30T07:51:14;-0.90;99.90
19968;DHT22;10145;49.152;9.282;2024-01-30T07:53:40;-0.80;99.90
19968;DHT22;10145;49.152;9.282;2024-01-30T07:56:07;-0.80;99.90
19968;DHT22;10145;49.152;9.282;2024-01-30T07:58:32;-0.70;99.90
19968;DHT22;10145;49.152;9.282;2024-01-30T08:00:58;-0.60;99.90
19968;DHT22;10145;49.152;9.282;2024-01-30T08:03:24;-0.50;99.90
19968;DHT22;10145;49.152;9.282;2024-01-30T08:05:49;-0.50;99.90
19968;DHT22;10145;49.152;9.282;2024-01-30T08:08:15;-0.40;99.90
19968;DHT22;10145;49.152;9.282;2024-01-30T08:10:41;-0.40;99.90
19968;DHT22;10145;49.152;9.282;2024-01-30T08:13:06;-0.30;99.90
19968;DHT22;10145;49.152;9.282;2024-01-30T08:15:34;-0.20;99.90
19968;DHT22;10145;49.152;9.282;2024-01-30T08:17:59;-0.20;99.90
19968;DHT22;10145;49.152;9.282;2024-01-30T08:20:25;-0.10;99.90
19968;DHT22;10145;49.152;9.282;2024-01-30T08:22:51;0.00;99.90
19968;DHT22;10145;49.152;9.282;2024-01-30T08:25:17;0.00;99.90
19968;DHT22;10145;49.152;9.282;2024-01-30T08:27:42;0.10;99.90
19968;DHT22;10145;49.152;9.282;2024-01-30T08:30:08;0.20;99.90
19968;DHT22;10145;49.152;9.282;2024-01-30T08:32:34;0.20;99.90
19968;DHT22;10145;49.152;9.282;2024-01-30T08:35:00;0.20;99.90
19968;DHT22;10145;49.152;9.282;2024-01-30T08:37:29;0.30;99.90
19968;DHT22;10145;49.152;9.282;2024-01-30T08:39:55;0.30;99.90
19968;DHT22;10145;49.152;9.282;2024-01-30T08:42:20;0.30;99.90
19968;DHT22;10145;49.152;9.282;2024-01-30T08:44:48;0.30;99.90
19968;DHT22;10145;49.152;9.282;2024-01-30T08:47:15;0.30;99.90
19968;DHT22;10145;49.152;9.282;2024-01-30T08:49:41;0.40;99.90
19968;DHT22;10145;49.152;9.282;2024-01-30T08:52:12;0.40;99.90
19968;DHT22;10145;49.152;9.282;2024-01-30T08:54:37;0.50;99.90
19968;DHT22;10145;49.152;9.282;2024-01-30T08:57:03;0.50;99.90
19968;DHT22;10145;49.152;9.282;2024-01-30T08:59:29;0.60;99.90
19968;DHT22;10145;49.152;9.282;2024-01-30T09:01:55;0.60;99.90
19968;DHT22;10145;49.152;9.282;2024-01-30T09:04:23;0.60;99.90
19968;DHT22;10145;49.152;9.282;2024-01-30T09:06:49;0.70;99.90
19968;DHT22;10145;49.152;9.282;2024-01-30T09:09:14;0.80;99.90
19968;DHT22;10145;49.152;9.282;2024-01-30T09:11:40;0.80;99.90
19968;DHT22;10145;49.152;9.282;2024-01-30T09:14:06;0.80;99.90
19968;DHT22;10145;49.152;9.282;2024-01-30T09:16:31;0.90;99.90
19968;DHT22;10145;49.152;9.282;2024-01-30T09:18:57;0.90;99.90
19968;DHT22;10145;49.152;9.282;2024-01-30T09:21:23;0.90;99.90
19968;DHT22;10145;49.152;9.282;2024-01-30T09:23:48;1.00;99.90
19968;DHT22;10145;49.152;9.282;2024-01-30T09:26:14;1.10;99.90
19968;DHT22;10145;49.152;9.282;2024-01-30T09:28:39;1.10;99.90
19968;DHT22;10145;49.152;9.282;2024-01-30T09:31:11;1.20;99.90
19968;DHT22;10145;49.152;9.282;2024-01-30T09:33:38;1.20;99.90
19968;DHT22;10145;49.152;9.282;2024-01-30T09:36:05;1.30;99.90
19968;DHT22;10145;49.152;9.282;2024-01-30T09:38:30;1.40;99.90
19968;DHT22;10145;49.152;9.282;2024-01-30T09:40:59;1.50;99.90
19968;DHT22;10145;49.152;9.282;2024-01-30T09:43:28;1.50;99.90
19968;DHT22;10145;49.152;9.282;2024-01-30T09:45:59;1.70;99.90
19968;DHT22;10145;49.152;9.282;2024-01-30T09:48:25;1.80;99.90
19968;DHT22;10145;49.152;9.282;2024-01-30T09:50:52;2.00;99.90
19968;DHT22;10145;49.152;9.282;2024-01-30T09:53:18;2.20;99.90
19968;DHT22;10145;49.152;9.282;2024-01-30T09:55:44;2.40;99.90
19968;DHT22;10145;49.152;9.282;2024-01-30T09:58:12;2.50;99.90
19968;DHT22;10145;49.152;9.282;2024-01-30T10:00:37;2.70;99.90
19968;DHT22;10145;49.152;9.282;2024-01-30T10:03:03;2.80;99.90
19968;DHT22;10145;49.152;9.282;2024-01-30T10:05:31;3.00;99.90
19968;DHT22;10145;49.152;9.282;2024-01-30T10:07:59;3.00;99.90
19968;DHT22;10145;49.152;9.282;2024-01-30T10:10:24;3.10;99.90
19968;DHT22;10145;49.152;9.282;2024-01-30T10:12:50;3.10;99.90
19968;DHT22;10145;49.152;9.282;2024-01-30T10:15:17;3.30;99.90
19968;DHT22;10145;49.152;9.282;2024-01-30T10:17:44;3.40;99.90
19968;DHT22;10145;49.152;9.282;2024-01-30T10:20:10;3.60;99.90
19968;DHT22;10145;49.152;9.282;2024-01-30T10:22:36;3.60;99.90
19968;DHT22;10145;49.152;9.282;2024-01-30T10:25:01;3.70;99.90
19968;DHT22;10145;49.152;9.282;2024-01-30T10:27:28;3.90;99.90
19968;DHT22;10145;49.152;9.282;2024-01-30T10:29:55;4.00;99.90
19968;DHT22;10145;49.152;9.282;2024-01-30T10:32:21;4.10;99.90
19968;DHT22;10145;49.152;9.282;2024-01-30T10:34:46;4.10;99.90
19968;DHT22;10145;49.152;9.282;2024-01-30T10:37:12;4.20;99.90
19968;DHT22;10145;49.152;9.282;2024-01-30T10:39:40;4.20;99.90
19968;DHT22;10145;49.152;9.282;2024-01-30T10:42:07;4.30;99.90
19968;DHT22;10145;49.152;9.282;2024-01-30T10:45:07;4.30;99.90
19968;DHT22;10145;49.152;9.282;2024-01-30T10:47:35;4.40;99.90
19968;DHT22;10145;49.152;9.282;2024-01-30T10:50:05;4.50;99.90
19968;DHT22;10145;49.152;9.282;2024-01-30T10:52:32;4.60;99.90
19968;DHT22;10145;49.152;9.282;2024-01-30T10:54:58;4.60;99.90
19968;DHT22;10145;49.152;9.282;2024-01-30T10:57:25;4.70;99.90
19968;DHT22;10145;49.152;9.282;2024-01-30T11:00:02;4.80;99.90
19968;DHT22;10145;49.152;9.282;2024-01-30T11:02:31;4.90;99.90
19968;DHT22;10145;49.152;9.282;2024-01-30T11:04:58;5.00;99.90
19968;DHT22;10145;49.152;9.282;2024-01-30T11:07:28;5.10;99.90
19968;DHT22;10145;49.152;9.282;2024-01-30T11:12:37;5.30;99.90
19968;DHT22;10145;49.152;9.282;2024-01-30T11:15:14;5.30;99.90
19968;DHT22;10145;49.152;9.282;2024-01-30T11:17:50;5.50;99.90
19968;DHT22;10145;49.152;9.282;2024-01-30T11:22:51;5.40;99.90
19968;DHT22;10145;49.152;9.282;2024-01-30T11:25:19;5.40;99.90
19968;DHT22;10145;49.152;9.282;2024-01-30T11:27:46;5.40;99.90
19968;DHT22;10145;49.152;9.282;2024-01-30T11:30:25;5.40;99.90
19968;DHT22;10145;49.152;9.282;2024-01-30T11:32:59;5.40;99.90
19968;DHT22;10145;49.152;9.282;2024-01-30T11:35:25;5.40;99.90
19968;DHT22;10145;49.152;9.282;2024-01-30T11:37:51;5.40;99.90
19968;DHT22;10145;49.152;9.282;2024-01-30T11:40:17;5.60;99.90
19968;DHT22;10145;49.152;9.282;2024-01-30T11:42:42;5.60;99.90
19968;DHT22;10145;49.152;9.282;2024-01-30T11:45:09;5.70;99.90
19968;DHT22;10145;49.152;9.282;2024-01-30T11:47:36;5.70;99.90
19968;DHT22;10145;49.152;9.282;2024-01-30T11:50:04;5.90;99.90
19968;DHT22;10145;49.152;9.282;2024-01-30T11:52:33;5.80;99.90
19968;DHT22;10145;49.152;9.282;2024-01-30T11:54:59;5.70;99.90
19968;DHT22;10145;49.152;9.282;2024-01-30T11:57:27;5.70;99.90
19968;DHT22;10145;49.152;9.282;2024-01-30T11:59:52;5.70;99.90
19968;DHT22;10145;49.152;9.282;2024-01-30T12:02:18;5.80;99.90
19968;DHT22;10145;49.152;9.282;2024-01-30T12:04:44;5.90;99.90
19968;DHT22;10145;49.152;9.282;2024-01-30T12:07:10;5.90;99.90
19968;DHT22;10145;49.152;9.282;2024-01-30T12:09:36;6.00;99.90
19968;DHT22;10145;49.152;9.282;2024-01-30T12:12:01;6.00;99.90
19968;DHT22;10145;49.152;9.282;2024-01-30T12:14:27;5.90;99.90
19968;DHT22;10145;49.152;9.282;2024-01-30T12:16:53;5.90;99.90
19968;DHT22;10145;49.152;9.282;2024-01-30T12:19:25;6.00;99.90
19968;DHT22;10145;49.152;9.282;2024-01-30T12:21:57;6.10;99.90
19968;DHT22;10145;49.152;9.282;2024-01-30T12:24:27;6.10;99.90
19968;DHT22;10145;49.152;9.282;2024-01-30T12:26:59;6.20;99.90
19968;DHT22;10145;49.152;9.282;2024-01-30T12:29:25;6.20;99.90
19968;DHT22;10145;49.152;9.282;2024-01-30T12:31:54;6.30;99.90
19968;DHT22;10145;49.152;9.282;2024-01-30T12:34:20;6.40;99.90
19968;DHT22;10145;49.152;9.282;2024-01-30T12:36:47;6.40;99.90
19968;DHT22;10145;49.152;9.282;2024-01-30T12:39:14;6.30;99.90
19968;DHT22;10145;49.152;9.282;2024-01-30T12:41:40;6.30;99.90
19968;DHT22;10145;49.152;9.282;2024-01-30T12:44:06;6.30;99.90
19968;DHT22;10145;49.152;9.282;2024-01-30T12:46:34;6.30;99.90
19968;DHT22;10145;49.152;9.282;2024-01-30T12:49:00;6.40;99.90
19968;DHT22;10145;49.152;9.282;2024-01-30T12:51:25;6.40;99.90
19968;DHT22;10145;49.152;9.282;2024-01-30T12:53:51;6.50;99.90
19968;DHT22;10145;49.152;9.282;2024-01-30T12:56:17;6.50;99.90
19968;DHT22;10145;49.152;9.282;2024-01-30T12:58:42;6.80;99.90
19968;DHT22;10145;49.152;9.282;2024-01-30T13:01:08;6.90;99.90
19968;DHT22;10145;49.152;9.282;2024-01-30T13:03:34;6.90;99.90
19968;DHT22;10145;49.152;9.282;2024-01-30T13:06:00;6.90;99.90
19968;DHT22;10145;49.152;9.282;2024-01-30T13:08:26;6.90;99.90
19968;DHT22;10145;49.152;9.282;2024-01-30T13:10:51;6.90;99.90
19968;DHT22;10145;49.152;9.282;2024-01-30T13:13:17;6.90;99.90
19968;DHT22;10145;49.152;9.282;2024-01-30T13:15:42;6.80;99.90
19968;DHT22;10145;49.152;9.282;2024-01-30T13:18:08;6.80;99.90
19968;DHT22;10145;49.152;9.282;2024-01-30T13:20:34;6.90;99.90
19968;DHT22;10145;49.152;9.282;2024-01-30T13:22:59;6.90;99.90
19968;DHT22;10145;49.152;9.282;2024-01-30T13:25:25;6.90;99.90
19968;DHT22;10145;49.152;9.282;2024-01-30T13:27:50;6.90;99.90
19968;DHT22;10145;49.152;9.282;2024-01-30T13:30:16;6.90;99.90
19968;DHT22;10145;49.152;9.282;2024-01-30T13:32:42;6.90;99.90
19968;DHT22;10145;49.152;9.282;2024-01-30T13:35:09;7.00;99.90
19968;DHT22;10145;49.152;9.282;2024-01-30T13:37:35;7.00;99.90
19968;DHT22;10145;49.152;9.282;2024-01-30T13:40:05;7.00;99.90
19968;DHT22;10145;49.152;9.282;2024-01-30T13:42:34;7.10;99.90
19968;DHT22;10145;49.152;9.282;2024-01-30T13:44:59;7.10;99.90
19968;DHT22;10145;49.152;9.282;2024-01-30T13:47:25;7.10;99.90
19968;DHT22;10145;49.152;9.282;2024-01-30T13:49:51;7.10;99.90
19968;DHT22;10145;49.152;9.282;2024-01-30T13:52:18;7.00;99.90
19968;DHT22;10145;49.152;9.282;2024-01-30T13:54:44;7.00;99.90
19968;DHT22;10145;49.152;9.282;2024-01-30T13:57:09;6.90;99.90
19968;DHT22;10145;49.152;9.282;2024-01-30T13:59:35;6.70;99.90
19968;DHT22;10145;49.152;9.282;2024-01-30T14:02:01;6.70;99.90
19968;DHT22;10145;49.152;9.282;2024-01-30T14:04:26;6.70;99.90
19968;DHT22;10145;49.152;9.282;2024-01-30T14:06:52;6.90;99.90
19968;DHT22;10145;49.152;9.282;2024-01-30T14:09:17;6.80;99.90
19968;DHT22;10145;49.152;9.282;2024-01-30T14:11:43;6.90;99.90
19968;DHT22;10145;49.152;9.282;2024-01-30T14:14:09;6.90;99.90
19968;DHT22;10145;49.152;9.282;2024-01-30T14:16:34;6.90;99.90
19968;DHT22;10145;49.152;9.282;2024-01-30T14:19:00;6.80;99.90
19968;DHT22;10145;49.152;9.282;2024-01-30T14:21:26;6.80;99.90
19968;DHT22;10145;49.152;9.282;2024-01-30T14:23:51;6.80;99.90
19968;DHT22;10145;49.152;9.282;2024-01-30T14:26:17;6.70;99.90
19968;DHT22;10145;49.152;9.282;2024-01-30T14:28:43;6.80;99.90
19968;DHT22;10145;49.152;9.282;2024-01-30T14:31:09;6.80;99.90
19968;DHT22;10145;49.152;9.282;2024-01-30T14:33:34;6.70;99.90
19968;DHT22;10145;49.152;9.282;2024-01-30T14:36:00;6.60;99.90
19968;DHT22;10145;49.152;9.282;2024-01-30T14:38:25;6.60;99.90
19968;DHT22;10145;49.152;9.282;2024-01-30T14:40:51;6.60;99.90
19968;DHT22;10145;49.152;9.282;2024-01-30T14:43:17;6.50;99.90
19968;DHT22;10145;49.152;9.282;2024-01-30T14:45:43;6.50;99.90
19968;DHT22;10145;49.152;9.282;2024-01-30T14:48:11;6.40;99.90
19968;DHT22;10145;49.152;9.282;2024-01-30T14:50:36;6.40;99.90
19968;DHT22;10145;49.152;9.282;2024-01-30T14:53:03;6.30;99.90
19968;DHT22;10145;49.152;9.282;2024-01-30T14:55:28;6.30;99.90
19968;DHT22;10145;49.152;9.282;2024-01-30T14:57:54;6.30;99.90
19968;DHT22;10145;49.152;9.282;2024-01-30T15:00:19;6.20;99.90
19968;DHT22;10145;49.152;9.282;2024-01-30T15:02:45;6.20;99.90
19968;DHT22;10145;49.152;9.282;2024-01-30T15:05:12;6.10;99.90
19968;DHT22;10145;49.152;9.282;2024-01-30T15:07:38;6.00;99.90
19968;DHT22;10145;49.152;9.282;2024-01-30T15:10:04;5.90;99.90
19968;DHT22;10145;49.152;9.282;2024-01-30T15:12:29;5.90;99.90
19968;DHT22;10145;49.152;9.282;2024-01-30T15:14:55;5.80;99.90
19968;DHT22;10145;49.152;9.282;2024-01-30T15:17:20;5.70;99.90
19968;DHT22;10145;49.152;9.282;2024-01-30T15:19:49;5.60;99.90
19968;DHT22;10145;49.152;9.282;2024-01-30T15:22:16;5.50;99.90
19968;DHT22;10145;49.152;9.282;2024-01-30T15:24:41;5.40;99.90
19968;DHT22;10145;49.152;9.282;2024-01-30T15:27:07;5.40;99.90
19968;DHT22;10145;49.152;9.282;2024-01-30T15:29:33;5.30;99.90
19968;DHT22;10145;49.152;9.282;2024-01-30T15:31:58;5.30;99.90
19968;DHT22;10145;49.152;9.282;2024-01-30T15:34:24;5.20;99.90
19968;DHT22;10145;49.152;9.282;2024-01-30T15:36:49;5.20;99.90